sensor_id;sensor_type;location;lat;lon;timestamp;pressure;altitude;pressure_sealevel;temperature;humidity
4767;BME280;2397;53.576;9.746;2023-10-31T00:00:28;99420.94;;;11.97;100.00
4767;BME280;2397;53.576;9.746;2023-10-31T00:02:54;99420.19;;;12.03;100.00
4767;BME280;2397;53.576;9.746;2023-10-31T00:05:21;99417.53;;;12.03;100.00
4767;BME280;2397;53.576;9.746;2023-10-31T00:07:48;99413.44;;;12.00;100.00
4767;BME280;2397;53.576;9.746;2023-10-31T00:10:15;99414.41;;;11.93;100.00
4767;BME280;2397;53.576;9.746;2023-10-31T00:12:42;99417.47;;;11.96;100.00
4767;BME280;2397;53.576;9.746;2023-10-31T00:15:08;99411.56;;;11.94;100.00
4767;BME280;2397;53.576;9.746;2023-10-31T00:17:35;99410.94;;;11.92;100.00
4767;BME280;2397;53.576;9.746;2023-10-31T00:20:02;99414.63;;;11.98;100.00
4767;BME280;2397;53.576;9.746;2023-10-31T00:22:29;99409.34;;;11.98;100.00
4767;BME280;2397;53.576;9.746;2023-10-31T00:24:56;99407.94;;;12.02;100.00
4767;BME280;2397;53.576;9.746;2023-10-31T00:27:23;99408.13;;;12.00;100.00
4767;BME280;2397;53.576;9.746;2023-10-31T00:29:49;99403.69;;;12.01;100.00
4767;BME280;2397;53.576;9.746;2023-10-31T00:32:16;99402.25;;;11.98;100.00
4767;BME280;2397;53.576;9.746;2023-10-31T00:34:42;99406.47;;;11.93;100.00
4767;BME280;2397;53.576;9.746;2023-10-31T00:37:11;99406.84;;;11.90;100.00
4767;BME280;2397;53.576;9.746;2023-10-31T00:39:37;99404.63;;;11.93;100.00
4767;BME280;2397;53.576;9.746;2023-10-31T00:42:04;99399.56;;;11.92;100.00
4767;BME280;2397;53.576;9.746;2023-10-31T00:44:32;99401.56;;;11.90;100.00
4767;BME280;2397;53.576;9.746;2023-10-31T00:46:59;99405.03;;;11.90;100.00
4767;BME280;2397;53.576;9.746;2023-10-31T00:49:25;99400.13;;;11.87;100.00
4767;BME280;2397;53.576;9.746;2023-10-31T00:51:52;99407.22;;;11.87;100.00
4767;BME280;2397;53.576;9.746;2023-10-31T00:54:18;99395.63;;;11.88;100.00
4767;BME280;2397;53.576;9.746;2023-10-31T00:56:45;99400.31;;;11.86;100.00
4767;BME280;2397;53.576;9.746;2023-10-31T00:59:12;99386.44;;;11.84;100.00
4767;BME280;2397;53.576;9.746;2023-10-31T01:01:38;99387.28;;;11.84;100.00
4767;BME280;2397;53.576;9.746;2023-10-31T01:04:05;99380.78;;;11.87;100.00
4767;BME280;2397;53.576;9.746;2023-10-31T01:06:32;99380.38;;;11.83;100.00
4767;BME280;2397;53.576;9.746;2023-10-31T01:08:58;99377.28;;;11.80;100.00
4767;BME280;2397;53.576;9.746;2023-10-31T01:11:26;99374.44;;;11.81;100.00
4767;BME280;2397;53.576;9.746;2023-10-31T01:13:52;99375.88;;;11.84;100.00
4767;BME280;2397;53.576;9.746;2023-10-31T01:16:19;99364.69;;;11.82;100.00
4767;BME280;2397;53.576;9.746;2023-10-31T01:18:45;99360.63;;;11.79;100.00
4767;BME280;2397;53.576;9.746;2023-10-31T01:21:12;99363.06;;;11.81;100.00
4767;BME280;2397;53.576;9.746;2023-10-31T01:23:39;99358.78;;;11.80;100.00
4767;BME280;2397;53.576;9.746;2023-10-31T01:26:05;99358.78;;;11.80;100.00
4767;BME280;2397;53.576;9.746;2023-10-31T01:28:32;99365.50;;;11.82;100.00
4767;BME280;2397;53.576;9.746;2023-10-31T01:30:59;99363.69;;;11.83;100.00
4767;BME280;2397;53.576;9.746;2023-10-31T01:33:25;99365.91;;;11.79;100.00
4767;BME280;2397;53.576;9.746;2023-10-31T01:35:52;99366.50;;;11.81;100.00
4767;BME280;2397;53.576;9.746;2023-10-31T01:38:18;99362.25;;;11.80;100.00
4767;BME280;2397;53.576;9.746;2023-10-31T01:40:49;99365.13;;;11.85;100.00
4767;BME280;2397;53.576;9.746;2023-10-31T01:43:30;99363.50;;;11.84;100.00
4767;BME280;2397;53.576;9.746;2023-10-31T01:45:58;99356.38;;;11.85;100.00
4767;BME280;2397;53.576;9.746;2023-10-31T01:48:27;99344.41;;;11.89;100.00
4767;BME280;2397;53.576;9.746;2023-10-31T01:50:56;99344.59;;;11.87;100.00
4767;BME280;2397;53.576;9.746;2023-10-31T01:53:25;99333.00;;;11.88;100.00
4767;BME280;2397;53.576;9.746;2023-10-31T01:55:52;99327.31;;;11.85;100.00
4767;BME280;2397;53.576;9.746;2023-10-31T01:58:25;99330.94;;;11.84;100.00
4767;BME280;2397;53.576;9.746;2023-10-31T02:00:55;99323.66;;;11.86;100.00
4767;BME280;2397;53.576;9.746;2023-10-31T02:03:22;99322.03;;;11.85;100.00
4767;BME280;2397;53.576;9.746;2023-10-31T02:05:51;99315.53;;;11.87;100.00
4767;BME280;2397;53.576;9.746;2023-10-31T02:08:18;99307.16;;;11.84;100.00
4767;BME280;2397;53.576;9.746;2023-10-31T02:10:45;99311.00;;;11.81;100.00
4767;BME280;2397;53.576;9.746;2023-10-31T02:13:16;99304.84;;;11.74;100.00
4767;BME280;2397;53.576;9.746;2023-10-31T02:15:44;99307.69;;;11.73;100.00
4767;BME280;2397;53.576;9.746;2023-10-31T02:18:11;99306.50;;;11.75;100.00
4767;BME280;2397;53.576;9.746;2023-10-31T02:20:38;99301.63;;;11.79;100.00
4767;BME280;2397;53.576;9.746;2023-10-31T02:23:05;99299.38;;;11.76;100.00
4767;BME280;2397;53.576;9.746;2023-10-31T02:25:32;99295.72;;;11.77;100.00
4767;BME280;2397;53.576;9.746;2023-10-31T02:27:59;99292.31;;;11.83;100.00
4767;BME280;2397;53.576;9.746;2023-10-31T02:30:26;99278.06;;;11.84;100.00
4767;BME280;2397;53.576;9.746;2023-10-31T02:32:53;99270.97;;;11.84;100.00
4767;BME280;2397;53.576;9.746;2023-10-31T02:35:20;99277.69;;;11.87;100.00
4767;BME280;2397;53.576;9.746;2023-10-31T02:37:47;99274.44;;;11.85;100.00
4767;BME280;2397;53.576;9.746;2023-10-31T02:40:14;99271.16;;;11.83;100.00
4767;BME280;2397;53.576;9.746;2023-10-31T02:42:41;99271.78;;;11.85;100.00
4767;BME280;2397;53.576;9.746;2023-10-31T02:45:08;99271.59;;;11.86;100.00
4767;BME280;2397;53.576;9.746;2023-10-31T02:47:34;99263.69;;;11.86;100.00
4767;BME280;2397;53.576;9.746;2023-10-31T02:50:01;99262.84;;;11.86;100.00
4767;BME280;2397;53.576;9.746;2023-10-31T02:52:29;99264.06;;;11.83;100.00
4767;BME280;2397;53.576;9.746;2023-10-31T02:54:55;99263.88;;;11.85;100.00
4767;BME280;2397;53.576;9.746;2023-10-31T02:57:22;99254.09;;;11.85;100.00
4767;BME280;2397;53.576;9.746;2023-10-31T02:59:48;99255.94;;;11.85;100.00
4767;BME280;2397;53.576;9.746;2023-10-31T03:02:15;99252.88;;;11.88;100.00
4767;BME280;2397;53.576;9.746;2023-10-31T03:04:42;99253.91;;;11.87;100.00
4767;BME280;2397;53.576;9.746;2023-10-31T03:07:09;99247.00;;;11.86;100.00
4767;BME280;2397;53.576;9.746;2023-10-31T03:09:35;99241.69;;;11.86;100.00
4767;BME280;2397;53.576;9.746;2023-10-31T03:12:02;99239.88;;;11.86;100.00
4767;BME280;2397;53.576;9.746;2023-10-31T03:14:29;99236.41;;;11.86;100.00
4767;BME280;2397;53.576;9.746;2023-10-31T03:16:55;99229.50;;;11.85;100.00
4767;BME280;2397;53.576;9.746;2023-10-31T03:19:22;99242.72;;;11.85;100.00
4767;BME280;2397;53.576;9.746;2023-10-31T03:21:48;99235.78;;;11.84;100.00
4767;BME280;2397;53.576;9.746;2023-10-31T03:24:15;99238.66;;;11.89;100.00
4767;BME280;2397;53.576;9.746;2023-10-31T03:26:41;99244.72;;;11.83;100.00
4767;BME280;2397;53.576;9.746;2023-10-31T03:29:08;99236.78;;;11.83;100.00
4767;BME280;2397;53.576;9.746;2023-10-31T03:31:38;99233.78;;;11.86;100.00
4767;BME280;2397;53.576;9.746;2023-10-31T03:34:04;99230.50;;;11.84;100.00
4767;BME280;2397;53.576;9.746;2023-10-31T03:36:31;99229.88;;;11.82;100.00
4767;BME280;2397;53.576;9.746;2023-10-31T03:38:57;99228.66;;;11.84;100.00
4767;BME280;2397;53.576;9.746;2023-10-31T03:41:24;99221.75;;;11.83;100.00
4767;BME280;2397;53.576;9.746;2023-10-31T03:43:51;99221.56;;;11.85;100.00
4767;BME280;2397;53.576;9.746;2023-10-31T03:46:18;99223.78;;;11.88;100.00
4767;BME280;2397;53.576;9.746;2023-10-31T03:48:44;99224.41;;;11.83;100.00
4767;BME280;2397;53.576;9.746;2023-10-31T03:51:11;99223.19;;;11.86;100.00
4767;BME280;2397;53.576;9.746;2023-10-31T03:53:38;99224.81;;;11.87;100.00
4767;BME280;2397;53.576;9.746;2023-10-31T03:56:04;99223.19;;;11.86;100.00
4767;BME280;2397;53.576;9.746;2023-10-31T03:58:31;99214.41;;;11.79;100.00
4767;BME280;2397;53.576;9.746;2023-10-31T04:00:58;99213.84;;;11.83;100.00
4767;BME280;2397;53.576;9.746;2023-10-31T04:03:25;99212.63;;;11.86;100.00
4767;BME280;2397;53.576;9.746;2023-10-31T04:05:52;99203.28;;;11.90;100.00
4767;BME280;2397;53.576;9.746;2023-10-31T04:08:18;99204.50;;;11.87;100.00
4767;BME280;2397;53.576;9.746;2023-10-31T04:10:45;99209.34;;;11.84;100.00
4767;BME280;2397;53.576;9.746;2023-10-31T04:13:11;99203.88;;;11.85;100.00
4767;BME280;2397;53.576;9.746;2023-10-31T04:15:38;99204.88;;;11.84;100.00
4767;BME280;2397;53.576;9.746;2023-10-31T04:18:04;99201.03;;;11.87;100.00
4767;BME280;2397;53.576;9.746;2023-10-31T04:20:31;99204.50;;;11.87;100.00
4767;BME280;2397;53.576;9.746;2023-10-31T04:22:58;99200.81;;;11.82;100.00
4767;BME280;2397;53.576;9.746;2023-10-31T04:25:24;99211.00;;;11.85;100.00
4767;BME280;2397;53.576;9.746;2023-10-31T04:27:51;99204.69;;;11.86;100.00
4767;BME280;2397;53.576;9.746;2023-10-31T04:30:17;99207.53;;;11.84;100.00
4767;BME280;2397;53.576;9.746;2023-10-31T04:32:44;99204.47;;;11.81;100.00
4767;BME280;2397;53.576;9.746;2023-10-31T04:35:12;99207.72;;;11.83;100.00
4767;BME280;2397;53.576;9.746;2023-10-31T04:37:38;99202.88;;;11.86;100.00
4767;BME280;2397;53.576;9.746;2023-10-31T04:40:05;99191.84;;;11.83;100.00
4767;BME280;2397;53.576;9.746;2023-10-31T04:42:32;99197.78;;;11.85;100.00
4767;BME280;2397;53.576;9.746;2023-10-31T04:45:02;99196.78;;;11.92;100.00
4767;BME280;2397;53.576;9.746;2023-10-31T04:47:29;99195.13;;;11.85;100.00
4767;BME280;2397;53.576;9.746;2023-10-31T04:49:56;99199.22;;;11.87;100.00
4767;BME280;2397;53.576;9.746;2023-10-31T04:52:22;99199.59;;;11.84;100.00
4767;BME280;2397;53.576;9.746;2023-10-31T04:54:49;99193.47;;;11.84;100.00
4767;BME280;2397;53.576;9.746;2023-10-31T04:57:15;99193.47;;;11.84;100.00
4767;BME280;2397;53.576;9.746;2023-10-31T04:59:42;99182.53;;;11.87;100.00
4767;BME280;2397;53.576;9.746;2023-10-31T05:02:09;99176.63;;;11.85;100.00
4767;BME280;2397;53.576;9.746;2023-10-31T05:04:39;99171.94;;;11.87;100.00
4767;BME280;2397;53.576;9.746;2023-10-31T05:07:07;99166.66;;;11.87;100.00
4767;BME280;2397;53.576;9.746;2023-10-31T05:09:35;99157.72;;;11.88;100.00
4767;BME280;2397;53.576;9.746;2023-10-31T05:12:02;99161.19;;;11.88;100.00
4767;BME280;2397;53.576;9.746;2023-10-31T05:14:29;99161.38;;;11.87;100.00
4767;BME280;2397;53.576;9.746;2023-10-31T05:16:55;99163.63;;;11.90;100.00
4767;BME280;2397;53.576;9.746;2023-10-31T05:19:22;99161.63;;;11.92;100.00
4767;BME280;2397;53.576;9.746;2023-10-31T05:21:48;99167.09;;;11.90;100.00
4767;BME280;2397;53.576;9.746;2023-10-31T05:24:15;99176.44;;;11.86;100.00
4767;BME280;2397;53.576;9.746;2023-10-31T05:26:41;99168.28;;;11.88;100.00
4767;BME280;2397;53.576;9.746;2023-10-31T05:29:10;99165.88;;;11.86;100.00
4767;BME280;2397;53.576;9.746;2023-10-31T05:31:37;99168.50;;;11.86;100.00
4767;BME280;2397;53.576;9.746;2023-10-31T05:34:03;99167.50;;;11.87;100.00
4767;BME280;2397;53.576;9.746;2023-10-31T05:36:30;99167.50;;;11.87;100.00
4767;BME280;2397;53.576;9.746;2023-10-31T05:38:57;99176.03;;;11.89;100.00
4767;BME280;2397;53.576;9.746;2023-10-31T05:41:23;99180.50;;;11.89;100.00
4767;BME280;2397;53.576;9.746;2023-10-31T05:43:50;99167.69;;;11.86;100.00
4767;BME280;2397;53.576;9.746;2023-10-31T05:46:17;99166.66;;;11.87;100.00
4767;BME280;2397;53.576;9.746;2023-10-31T05:48:45;99169.31;;;11.87;100.00
4767;BME280;2397;53.576;9.746;2023-10-31T05:51:18;99166.66;;;11.87;100.00
4767;BME280;2397;53.576;9.746;2023-10-31T05:53:47;99170.13;;;11.87;100.00
4767;BME280;2397;53.576;9.746;2023-10-31T05:56:15;99171.75;;;11.88;100.00
4767;BME280;2397;53.576;9.746;2023-10-31T05:58:42;99169.50;;;11.85;100.00
4767;BME280;2397;53.576;9.746;2023-10-31T06:01:09;99171.94;;;11.87;100.00
4767;BME280;2397;53.576;9.746;2023-10-31T06:03:36;99165.63;;;11.88;100.00
4767;BME280;2397;53.576;9.746;2023-10-31T06:06:03;99171.56;;;11.90;100.00
4767;BME280;2397;53.576;9.746;2023-10-31T06:08:30;99165.25;;;11.91;100.00
4767;BME280;2397;53.576;9.746;2023-10-31T06:10:56;99160.22;;;11.96;100.00
4767;BME280;2397;53.576;9.746;2023-10-31T06:13:24;99167.09;;;11.90;100.00
4767;BME280;2397;53.576;9.746;2023-10-31T06:15:55;99160.16;;;11.89;100.00
4767;BME280;2397;53.576;9.746;2023-10-31T06:18:27;99164.47;;;11.90;100.00
4767;BME280;2397;53.576;9.746;2023-10-31T06:20:54;99168.91;;;11.90;100.00
4767;BME280;2397;53.576;9.746;2023-10-31T06:23:20;99169.94;;;11.89;100.00
4767;BME280;2397;53.576;9.746;2023-10-31T06:25:47;99163.63;;;11.90;100.00
4767;BME280;2397;53.576;9.746;2023-10-31T06:28:14;99165.06;;;11.92;100.00
4767;BME280;2397;53.576;9.746;2023-10-31T06:30:41;99169.75;;;11.97;100.00
4767;BME280;2397;53.576;9.746;2023-10-31T06:33:07;99173.81;;;11.93;100.00
4767;BME280;2397;53.576;9.746;2023-10-31T06:35:35;99173.63;;;11.94;100.00
4767;BME280;2397;53.576;9.746;2023-10-31T06:38:02;99168.72;;;11.91;100.00
4767;BME280;2397;53.576;9.746;2023-10-31T06:40:28;99176.47;;;11.93;100.00
4767;BME280;2397;53.576;9.746;2023-10-31T06:42:55;99174.84;;;11.92;100.00
4767;BME280;2397;53.576;9.746;2023-10-31T06:45:21;99167.91;;;11.91;100.00
4767;BME280;2397;53.576;9.746;2023-10-31T06:47:48;99181.50;;;11.88;100.00
4767;BME280;2397;53.576;9.746;2023-10-31T06:50:15;99178.06;;;11.87;100.00
4767;BME280;2397;53.576;9.746;2023-10-31T06:52:45;99180.91;;;11.86;100.00
4767;BME280;2397;53.576;9.746;2023-10-31T06:55:12;99183.94;;;11.89;100.00
4767;BME280;2397;53.576;9.746;2023-10-31T06:57:39;99180.91;;;11.92;100.00
4767;BME280;2397;53.576;9.746;2023-10-31T07:00:06;99179.28;;;11.91;100.00
4767;BME280;2397;53.576;9.746;2023-10-31T07:02:35;99178.47;;;11.91;100.00
4767;BME280;2397;53.576;9.746;2023-10-31T07:05:02;99187.41;;;11.90;100.00
4767;BME280;2397;53.576;9.746;2023-10-31T07:07:30;99178.47;;;11.91;100.00
4767;BME280;2397;53.576;9.746;2023-10-31T07:09:57;99186.84;;;11.94;100.00
4767;BME280;2397;53.576;9.746;2023-10-31T07:12:24;99186.66;;;11.96;100.00
4767;BME280;2397;53.576;9.746;2023-10-31T07:14:51;99184.97;;;11.88;100.00
4767;BME280;2397;53.576;9.746;2023-10-31T07:17:17;99181.13;;;11.91;100.00
4767;BME280;2397;53.576;9.746;2023-10-31T07:19:44;99177.88;;;11.95;100.00
4767;BME280;2397;53.576;9.746;2023-10-31T07:22:10;99179.28;;;11.91;100.00
4767;BME280;2397;53.576;9.746;2023-10-31T07:24:37;99183.75;;;11.91;100.00
4767;BME280;2397;53.576;9.746;2023-10-31T07:27:04;99183.75;;;11.91;100.00
4767;BME280;2397;53.576;9.746;2023-10-31T07:29:30;99181.47;;;11.81;100.00
4767;BME280;2397;53.576;9.746;2023-10-31T07:31:57;99175.16;;;11.76;100.00
4767;BME280;2397;53.576;9.746;2023-10-31T07:34:24;99177.19;;;11.74;100.00
4767;BME280;2397;53.576;9.746;2023-10-31T07:36:50;99188.56;;;11.74;100.00
4767;BME280;2397;53.576;9.746;2023-10-31T07:39:17;99184.69;;;11.77;100.00
4767;BME280;2397;53.576;9.746;2023-10-31T07:41:43;99187.69;;;11.61;100.00
4767;BME280;2397;53.576;9.746;2023-10-31T07:44:11;99187.53;;;11.41;100.00
4767;BME280;2397;53.576;9.746;2023-10-31T07:46:38;99193.31;;;11.24;100.00
4767;BME280;2397;53.576;9.746;2023-10-31T07:49:04;99200.13;;;11.12;100.00
4767;BME280;2397;53.576;9.746;2023-10-31T07:51:31;99202.28;;;11.02;100.00
4767;BME280;2397;53.576;9.746;2023-10-31T07:53:58;99191.72;;;11.02;100.00
4767;BME280;2397;53.576;9.746;2023-10-31T07:56:25;99196.44;;;11.06;100.00
4767;BME280;2397;53.576;9.746;2023-10-31T07:58:52;99196.91;;;10.89;100.00
4767;BME280;2397;53.576;9.746;2023-10-31T08:01:18;99197.88;;;10.88;100.00
4767;BME280;2397;53.576;9.746;2023-10-31T08:03:48;99199.28;;;10.84;100.00
4767;BME280;2397;53.576;9.746;2023-10-31T08:06:15;99193.63;;;10.87;100.00
4767;BME280;2397;53.576;9.746;2023-10-31T08:08:42;99188.72;;;10.84;100.00
4767;BME280;2397;53.576;9.746;2023-10-31T08:11:09;99190.28;;;10.78;100.00
4767;BME280;2397;53.576;9.746;2023-10-31T08:13:37;99184.22;;;10.78;100.00
4767;BME280;2397;53.576;9.746;2023-10-31T08:16:05;99182.44;;;10.85;100.00
4767;BME280;2397;53.576;9.746;2023-10-31T08:18:33;99190.38;;;10.85;100.00
4767;BME280;2397;53.576;9.746;2023-10-31T08:20:59;99183.00;;;10.80;100.00
4767;BME280;2397;53.576;9.746;2023-10-31T08:23:28;99191.53;;;10.82;100.00
4767;BME280;2397;53.576;9.746;2023-10-31T08:25:55;99199.66;;;10.81;100.00
4767;BME280;2397;53.576;9.746;2023-10-31T08:28:22;99201.31;;;10.82;100.00
4767;BME280;2397;53.576;9.746;2023-10-31T08:30:48;99200.28;;;10.83;100.00
4767;BME280;2397;53.576;9.746;2023-10-31T08:33:15;99196.81;;;10.82;100.00
4767;BME280;2397;53.576;9.746;2023-10-31T08:35:42;99208.03;;;10.84;100.00
4767;BME280;2397;53.576;9.746;2023-10-31T08:38:09;99209.41;;;10.80;100.00
4767;BME280;2397;53.576;9.746;2023-10-31T08:40:49;99206.81;;;10.87;100.00
4767;BME280;2397;53.576;9.746;2023-10-31T08:43:16;99209.22;;;10.82;100.00
4767;BME280;2397;53.576;9.746;2023-10-31T08:45:43;99216.88;;;10.77;100.00
4767;BME280;2397;53.576;9.746;2023-10-31T08:48:09;99216.88;;;10.77;100.00
4767;BME280;2397;53.576;9.746;2023-10-31T08:50:36;99220.38;;;10.84;100.00
4767;BME280;2397;53.576;9.746;2023-10-31T08:53:03;99235.03;;;10.86;100.00
4767;BME280;2397;53.576;9.746;2023-10-31T08:55:29;99226.69;;;10.83;100.00
4767;BME280;2397;53.576;9.746;2023-10-31T08:57:56;99237.03;;;10.84;100.00
4767;BME280;2397;53.576;9.746;2023-10-31T09:00:22;99242.75;;;10.88;100.00
4767;BME280;2397;53.576;9.746;2023-10-31T09:02:49;99242.31;;;10.84;100.00
4767;BME280;2397;53.576;9.746;2023-10-31T09:05:16;99261.88;;;10.90;100.00
4767;BME280;2397;53.576;9.746;2023-10-31T09:07:43;99270.16;;;10.87;100.00
4767;BME280;2397;53.576;9.746;2023-10-31T09:10:09;99282.97;;;10.90;100.00
4767;BME280;2397;53.576;9.746;2023-10-31T09:12:36;99288.25;;;10.90;100.00
4767;BME280;2397;53.576;9.746;2023-10-31T09:15:03;99311.19;;;10.89;100.00
4767;BME280;2397;53.576;9.746;2023-10-31T09:17:32;99334.00;;;10.76;100.00
4767;BME280;2397;53.576;9.746;2023-10-31T09:20:00;99338.47;;;10.61;100.00
4767;BME280;2397;53.576;9.746;2023-10-31T09:22:27;99352.50;;;10.47;100.00
4767;BME280;2397;53.576;9.746;2023-10-31T09:24:53;99371.63;;;10.34;100.00
4767;BME280;2397;53.576;9.746;2023-10-31T09:27:20;99379.69;;;10.32;100.00
4767;BME280;2397;53.576;9.746;2023-10-31T09:29:46;99389.72;;;10.22;100.00
4767;BME280;2397;53.576;9.746;2023-10-31T09:32:14;99396.91;;;10.14;100.00
4767;BME280;2397;53.576;9.746;2023-10-31T09:34:41;99403.72;;;10.08;100.00
4767;BME280;2397;53.576;9.746;2023-10-31T09:37:07;99426.47;;;10.01;100.00
4767;BME280;2397;53.576;9.746;2023-10-31T09:39:35;99436.19;;;10.01;100.00
4767;BME280;2397;53.576;9.746;2023-10-31T09:42:01;99458.53;;;9.90;100.00
4767;BME280;2397;53.576;9.746;2023-10-31T09:44:28;99465.78;;;9.88;100.00
4767;BME280;2397;53.576;9.746;2023-10-31T09:46:55;99484.59;;;9.85;100.00
4767;BME280;2397;53.576;9.746;2023-10-31T09:49:23;99497.41;;;9.88;100.00
4767;BME280;2397;53.576;9.746;2023-10-31T09:51:50;99505.28;;;9.96;100.00
4767;BME280;2397;53.576;9.746;2023-10-31T09:54:17;99540.66;;;10.02;100.00
4767;BME280;2397;53.576;9.746;2023-10-31T09:56:43;99520.72;;;9.99;100.00
4767;BME280;2397;53.576;9.746;2023-10-31T09:59:10;99532.22;;;10.06;100.00
4767;BME280;2397;53.576;9.746;2023-10-31T10:01:36;99546.41;;;10.05;100.00
4767;BME280;2397;53.576;9.746;2023-10-31T10:04:05;99550.66;;;10.06;100.00
4767;BME280;2397;53.576;9.746;2023-10-31T10:06:32;99555.16;;;10.06;100.00
4767;BME280;2397;53.576;9.746;2023-10-31T10:08:58;99560.69;;;10.11;100.00
4767;BME280;2397;53.576;9.746;2023-10-31T10:11:25;99571.41;;;10.09;100.00
4767;BME280;2397;53.576;9.746;2023-10-31T10:13:52;99575.34;;;10.13;100.00
4767;BME280;2397;53.576;9.746;2023-10-31T10:16:32;99578.03;;;10.05;100.00
4767;BME280;2397;53.576;9.746;2023-10-31T10:19:19;99589.91;;;10.01;100.00
4767;BME280;2397;53.576;9.746;2023-10-31T10:21:57;99599.13;;;10.05;100.00
4767;BME280;2397;53.576;9.746;2023-10-31T10:24:24;99600.41;;;10.09;100.00
4767;BME280;2397;53.576;9.746;2023-10-31T10:26:52;99604.34;;;10.13;100.00
4767;BME280;2397;53.576;9.746;2023-10-31T10:29:19;99619.53;;;10.11;100.00
4767;BME280;2397;53.576;9.746;2023-10-31T10:31:45;99624.81;;;10.11;100.00
4767;BME280;2397;53.576;9.746;2023-10-31T10:34:16;99633.34;;;10.13;100.00
4767;BME280;2397;53.576;9.746;2023-10-31T10:36:47;99632.00;;;10.17;100.00
4767;BME280;2397;53.576;9.746;2023-10-31T10:39:19;99645.31;;;10.24;100.00
4767;BME280;2397;53.576;9.746;2023-10-31T10:41:52;99650.00;;;10.14;100.00
4767;BME280;2397;53.576;9.746;2023-10-31T10:44:35;99657.59;;;10.09;100.00
4767;BME280;2397;53.576;9.746;2023-10-31T10:47:06;99652.63;;;10.14;100.00
4767;BME280;2397;53.576;9.746;2023-10-31T10:49:35;99665.16;;;10.12;100.00
4767;BME280;2397;53.576;9.746;2023-10-31T10:54:43;99677.53;;;10.11;100.00
4767;BME280;2397;53.576;9.746;2023-10-31T10:57:21;99675.88;;;10.10;100.00
4767;BME280;2397;53.576;9.746;2023-10-31T10:59:51;99680.69;;;10.07;100.00
4767;BME280;2397;53.576;9.746;2023-10-31T11:02:24;99682.13;;;10.09;100.00
4767;BME280;2397;53.576;9.746;2023-10-31T11:04:54;99679.50;;;10.09;100.00
4767;BME280;2397;53.576;9.746;2023-10-31T11:07:22;99681.69;;;10.06;100.00
4767;BME280;2397;53.576;9.746;2023-10-31T11:09:50;99692.03;;;9.99;100.00
4767;BME280;2397;53.576;9.746;2023-10-31T11:12:18;99698.97;;;10.00;100.00
4767;BME280;2397;53.576;9.746;2023-10-31T11:14:49;99706.13;;;10.22;100.00
4767;BME280;2397;53.576;9.746;2023-10-31T11:17:24;99711.25;;;10.16;100.00
4767;BME280;2397;53.576;9.746;2023-10-31T11:19:52;99719.38;;;10.14;100.00
4767;BME280;2397;53.576;9.746;2023-10-31T11:22:20;99718.19;;;10.17;100.00
4767;BME280;2397;53.576;9.746;2023-10-31T11:24:50;99733.25;;;10.31;100.00
4767;BME280;2397;53.576;9.746;2023-10-31T11:27:17;99725.44;;;10.46;100.00
4767;BME280;2397;53.576;9.746;2023-10-31T11:29:44;99736.63;;;10.48;100.00
4767;BME280;2397;53.576;9.746;2023-10-31T11:32:11;99736.16;;;10.44;100.00
4767;BME280;2397;53.576;9.746;2023-10-31T11:34:39;99738.56;;;10.54;100.00
4767;BME280;2397;53.576;9.746;2023-10-31T11:37:23;99746.38;;;10.47;100.00
4767;BME280;2397;53.576;9.746;2023-10-31T11:42:41;99761.03;;;10.50;100.00
4767;BME280;2397;53.576;9.746;2023-10-31T11:45:08;99761.03;;;10.50;100.00
4767;BME280;2397;53.576;9.746;2023-10-31T11:47:48;99763.44;;;10.59;100.00
4767;BME280;2397;53.576;9.746;2023-10-31T11:50:15;99774.06;;;10.74;100.00
4767;BME280;2397;53.576;9.746;2023-10-31T11:52:42;99777.22;;;10.69;100.00
4767;BME280;2397;53.576;9.746;2023-10-31T11:55:09;99775.59;;;10.68;100.00
4767;BME280;2397;53.576;9.746;2023-10-31T11:57:38;99780.06;;;10.90;100.00
4767;BME280;2397;53.576;9.746;2023-10-31T12:00:05;99786.66;;;10.86;100.00
4767;BME280;2397;53.576;9.746;2023-10-31T12:02:39;99777.19;;;11.00;100.00
4767;BME280;2397;53.576;9.746;2023-10-31T12:05:11;99785.44;;;10.97;100.00
4767;BME280;2397;53.576;9.746;2023-10-31T12:07:45;99792.97;;;11.08;100.00
4767;BME280;2397;53.576;9.746;2023-10-31T12:10:12;99794.59;;;11.09;100.00
4767;BME280;2397;53.576;9.746;2023-10-31T12:12:48;99800.72;;;11.09;100.00
4767;BME280;2397;53.576;9.746;2023-10-31T12:15:14;99794.72;;;10.93;100.00
4767;BME280;2397;53.576;9.746;2023-10-31T12:17:41;99799.22;;;11.07;100.00
4767;BME280;2397;53.576;9.746;2023-10-31T12:20:08;99802.94;;;10.98;100.00
4767;BME280;2397;53.576;9.746;2023-10-31T12:22:35;99808.44;;;10.88;100.00
4767;BME280;2397;53.576;9.746;2023-10-31T12:25:06;99816.53;;;10.87;100.00
4767;BME280;2397;53.576;9.746;2023-10-31T12:30:15;99820.41;;;10.99;100.00
4767;BME280;2397;53.576;9.746;2023-10-31T12:32:43;99830.56;;;11.10;100.00
4767;BME280;2397;53.576;9.746;2023-10-31T12:35:11;99834.47;;;11.14;100.00
4767;BME280;2397;53.576;9.746;2023-10-31T12:37:46;99830.13;;;11.21;100.00
4767;BME280;2397;53.576;9.746;2023-10-31T12:40:18;99832.16;;;11.19;100.00
4767;BME280;2397;53.576;9.746;2023-10-31T12:42:46;99838.91;;;11.21;100.00
4767;BME280;2397;53.576;9.746;2023-10-31T12:45:13;99843.28;;;11.29;100.00
4767;BME280;2397;53.576;9.746;2023-10-31T12:47:40;99841.03;;;11.26;100.00
4767;BME280;2397;53.576;9.746;2023-10-31T12:50:15;99841.28;;;11.31;100.00
4767;BME280;2397;53.576;9.746;2023-10-31T12:52:49;99843.53;;;11.19;100.00
4767;BME280;2397;53.576;9.746;2023-10-31T12:55:16;99845.72;;;11.16;100.00
4767;BME280;2397;53.576;9.746;2023-10-31T12:57:45;99852.34;;;11.12;100.00
4767;BME280;2397;53.576;9.746;2023-10-31T13:00:14;99854.22;;;11.03;100.00
4767;BME280;2397;53.576;9.746;2023-10-31T13:02:41;99855.91;;;10.96;100.00
4767;BME280;2397;53.576;9.746;2023-10-31T13:05:12;99865.28;;;10.99;100.00
4767;BME280;2397;53.576;9.746;2023-10-31T13:07:40;99866.97;;;10.92;100.00
4767;BME280;2397;53.576;9.746;2023-10-31T13:10:07;99876.97;;;10.82;100.00
4767;BME280;2397;53.576;9.746;2023-10-31T13:12:37;99890.84;;;10.76;100.00
4767;BME280;2397;53.576;9.746;2023-10-31T13:15:04;99901.09;;;10.71;100.00
4767;BME280;2397;53.576;9.746;2023-10-31T13:17:31;99919.38;;;10.17;100.00
4767;BME280;2397;53.576;9.746;2023-10-31T13:19:58;99912.34;;;9.78;100.00
4767;BME280;2397;53.576;9.746;2023-10-31T13:22:25;99933.25;;;9.71;100.00